createdAt,value
2022-08-08T00:00:53.738Z,71.42
2022-08-08T00:08:33.425Z,70.64
2022-08-08T00:16:12.495Z,70.72
2022-08-08T00:23:52.684Z,72.25
2022-08-08T00:32:20.427Z,73.70
2022-08-08T00:41:07.609Z,73.19
2022-08-08T00:48:29.086Z,73.86
2022-08-08T00:56:46.273Z,75.35
2022-08-08T01:04:50.814Z,74.40
2022-08-08T01:13:15.140Z,74.46
2022-08-08T01:21:07.307Z,77.65
2022-08-08T01:29:35.578Z,83.37
2022-08-08T01:37:59.994Z,81.42
2022-08-08T01:45:58.343Z,84.54
2022-08-08T01:55:17.134Z,80.23
2022-08-08T02:02:04.971Z,82.65
2022-08-08T02:10:11.693Z,87.15
2022-08-08T02:17:57.594Z,86.06
2022-08-08T02:25:46.856Z,87.86
2022-08-08T02:34:00.243Z,92.17
2022-08-08T02:42:07.854Z,91.67
2022-08-08T02:50:18.204Z,89.55
2022-08-08T02:58:42.274Z,90.28
2022-08-08T03:07:02.420Z,90.71
2022-08-08T03:15:57.395Z,90.55
2022-08-08T03:23:00.616Z,91.52
2022-08-08T03:30:38.361Z,93.38
2022-08-08T03:38:57.942Z,93.89
2022-08-08T03:46:09.701Z,92.70
2022-08-08T03:53:47.739Z,92.99
2022-08-08T04:01:24.515Z,92.15
2022-08-08T04:09:10.595Z,95.09
2022-08-08T04:16:49.184Z,97.85
2022-08-08T04:24:29.642Z,99.93
2022-08-08T04:32:06.826Z,97.94
2022-08-08T04:40:05.418Z,97.20
2022-08-08T04:47:46.121Z,96.77
2022-08-08T04:55:22.129Z,99.68
2022-08-08T05:02:56.828Z,95.25
2022-08-08T05:10:32.951Z,95.72
2022-08-08T05:18:07.105Z,93.34
2022-08-08T05:25:43.234Z,86.07
2022-08-08T05:33:17.837Z,80.34
2022-08-08T05:40:58.174Z,78.43
2022-08-08T05:48:34.633Z,75.59
2022-08-08T05:56:15.218Z,74.23
2022-08-08T06:03:53.673Z,69.96
2022-08-08T06:11:33.212Z,68.77
2022-08-08T06:19:16.197Z,68.25
2022-08-08T06:26:58.963Z,66.78
2022-08-08T06:34:40.273Z,64.58
2022-08-08T06:42:16.474Z,62.62
2022-08-08T06:49:56.667Z,61.62
2022-08-08T06:57:54.722Z,59.88
2022-08-08T07:05:29.857Z,59.62
2022-08-08T07:13:18.725Z,58.01
2022-08-08T07:20:56.004Z,57.57
2022-08-08T07:28:34.283Z,57.09
2022-08-08T07:36:10.499Z,56.09
2022-08-08T07:43:53.496Z,53.05
2022-08-08T07:51:53.258Z,51.32
2022-08-08T07:59:27.942Z,49.81
2022-08-08T08:07:12.545Z,49.29
2022-08-08T08:14:55.739Z,47.27
2022-08-08T08:22:31.336Z,45.10
2022-08-08T08:30:10.369Z,46.29
2022-08-08T08:38:13.000Z,40.63
2022-08-08T08:45:40.679Z,39.72
2022-08-08T08:53:54.991Z,37.03
2022-08-08T09:01:14.934Z,37.45
2022-08-08T09:08:55.186Z,36.53
2022-08-08T09:16:32.842Z,35.64
2022-08-08T09:24:07.313Z,34.05
2022-08-08T09:31:56.035Z,33.58
2022-08-08T09:39:36.775Z,39.13
2022-08-08T09:47:26.501Z,34.02
2022-08-08T09:55:09.470Z,35.77
2022-08-08T10:02:54.145Z,33.95
2022-08-08T10:10:30.302Z,31.64
2022-08-08T10:18:13.096Z,33.31
2022-08-08T10:25:57.201Z,32.01
2022-08-08T10:33:38.593Z,32.74
2022-08-08T10:41:35.419Z,33.07
2022-08-08T10:50:02.278Z,33.55
2022-08-08T10:57:27.558Z,33.80
2022-08-08T11:05:18.116Z,33.70
2022-08-08T11:13:18.703Z,33.52
2022-08-08T11:20:52.228Z,33.03
2022-08-08T11:28:29.569Z,31.97
2022-08-08T11:36:07.059Z,32.01
2022-08-08T11:43:43.529Z,32.20
2022-08-08T11:51:37.959Z,32.59
2022-08-08T11:59:14.381Z,32.27
2022-08-08T12:06:49.658Z,32.88
2022-08-08T12:14:24.122Z,32.89
2022-08-08T12:22:13.504Z,32.07
2022-08-08T12:30:02.053Z,31.01
2022-08-08T12:37:40.802Z,32.72
2022-08-08T12:45:58.543Z,31.12
2022-08-08T12:53:24.685Z,31.49
2022-08-08T13:01:11.055Z,31.38
2022-08-08T13:08:53.155Z,32.83
2022-08-08T13:16:30.005Z,33.22
2022-08-08T13:24:07.925Z,32.65
2022-08-08T13:31:53.401Z,31.26
2022-08-08T13:39:28.651Z,30.41
2022-08-08T13:47:05.016Z,30.75
2022-08-08T13:54:49.434Z,31.29
2022-08-08T14:02:30.955Z,31.18
2022-08-08T14:10:11.773Z,30.20
2022-08-08T14:17:58.489Z,29.41
2022-08-08T14:25:46.735Z,29.67
2022-08-08T14:33:36.578Z,29.13
2022-08-08T14:41:17.718Z,27.71
2022-08-08T14:49:31.881Z,28.17
2022-08-08T14:57:08.858Z,28.51
2022-08-08T15:04:45.593Z,27.83
2022-08-08T15:12:36.572Z,28.50
2022-08-08T15:20:14.162Z,29.02
2022-08-08T15:28:05.184Z,28.24
2022-08-08T15:35:43.395Z,28.62
2022-08-08T15:43:35.728Z,29.77
2022-08-08T15:51:11.646Z,29.55
2022-08-08T15:58:50.704Z,29.63
2022-08-08T16:06:28.774Z,29.53
2022-08-08T16:14:11.388Z,30.56
2022-08-08T16:21:54.076Z,31.27
2022-08-08T16:29:37.352Z,31.39
2022-08-08T16:37:27.859Z,32.02
2022-08-08T16:45:11.461Z,32.16
2022-08-08T16:55:05.812Z,32.72
2022-08-08T17:00:52.941Z,33.07
2022-08-08T17:08:27.171Z,34.19
2022-08-08T17:16:02.356Z,34.91
2022-08-08T17:24:01.437Z,34.77
2022-08-08T17:31:45.142Z,34.36
2022-08-08T17:39:46.056Z,34.75
2022-08-08T17:47:23.172Z,34.31
2022-08-08T17:54:58.654Z,34.32
2022-08-08T18:02:33.974Z,35.02
2022-08-08T18:10:10.218Z,35.34
2022-08-08T18:18:08.951Z,35.04
2022-08-08T18:25:39.684Z,35.39
2022-08-08T18:33:36.620Z,35.56
2022-08-08T18:41:10.143Z,36.48
2022-08-08T18:48:45.508Z,36.72
2022-08-08T18:56:22.992Z,37.46
2022-08-08T19:04:09.908Z,38.03
2022-08-08T19:11:46.243Z,40.02
2022-08-08T19:19:22.134Z,40.09
2022-08-08T19:26:57.889Z,41.30
2022-08-08T19:34:38.767Z,42.12
2022-08-08T19:42:15.467Z,42.98
2022-08-08T19:49:59.734Z,43.35
2022-08-08T19:57:35.510Z,44.26
2022-08-08T20:05:12.113Z,45.00
2022-08-08T20:12:59.140Z,45.88
2022-08-08T20:20:42.490Z,46.52
2022-08-08T20:28:17.486Z,47.15
2022-08-08T20:35:58.585Z,47.05
2022-08-08T20:43:43.629Z,47.82
2022-08-08T20:51:23.640Z,49.19
2022-08-08T20:58:58.989Z,49.66
2022-08-08T21:06:52.714Z,49.90
2022-08-08T21:14:33.499Z,49.83
2022-08-08T21:22:09.658Z,50.16
2022-08-08T21:30:03.698Z,50.36
2022-08-08T21:37:54.329Z,50.88
2022-08-08T21:47:59.658Z,51.29
2022-08-08T21:54:32.000Z,51.25
2022-08-08T22:01:22.446Z,52.16
2022-08-08T22:09:08.409Z,52.24
2022-08-08T22:16:42.732Z,52.21
2022-08-08T22:24:18.016Z,52.10
2022-08-08T22:32:03.513Z,52.30
2022-08-08T22:39:45.560Z,52.78
2022-08-08T22:47:36.538Z,52.99
2022-08-08T22:55:14.316Z,52.98
2022-08-08T23:02:51.247Z,53.25
2022-08-08T23:10:27.645Z,53.12
2022-08-08T23:18:01.490Z,52.99
2022-08-08T23:25:48.290Z,53.12
2022-08-08T23:34:15.976Z,54.38
2022-08-08T23:41:24.570Z,55.89
2022-08-08T23:49:18.102Z,56.16
2022-08-08T23:56:54.249Z,55.59
